Huvudsida
METAR-TAF:

METAR-TAF

Flygplatser :

Wallis, Frankrike

latitud: 13-14S, longitud: 176-10W, höjd: 23 m

METAR: saknas

Tid: 19:38 (07:38 UTC)

Väderprognos

Denna rapport gjordes för 2 timmar och 38 minuter sedan, klockan 05:00 UTC
Prognos gäller från 22 kl. 06 UTC till 23 kl. 06 UTC
Vind 6 kt från sydost
Sikt 10 km eller mer
Få moln på en höjd av 2300 ft
Sannolikhet 30% :
Temporärt
från 22 kl. 16 UTC till 23 kl. 03 UTC
Sikt: 4500 m
regnskurar

TAF: NLWW 220500Z 2206/2306 14006KT 9999 FEW023 PROB30 TEMPO 2216/2303 4500 SHRA

Aktuella väderrapporter och prognoser från 4000 flygplatser (METAR- och TAF-rapporter).

De tillgängliga stationerna syns som gula och röda prickar på kartan.

För musen över prickarna för att se namnen på stationerna.

Klicka sedan för att få väderrapporter och prognoser.

För att ändra kartan: Klicka på de gröna knapparna med ett svart kors på för att zooma in; den gröna knappen med ett streck på för att zooma ut; eller på de gröna pilarna för angränsande kartor.


METAR-TAF: